Time;durP1;ratioP1;P1;durP2;ratioP2;P2;SDS_P1;SDS_P2;PMS_P1;PMS_P2;Temp;Humidity;BMP_temperature;BMP_pressure;BME280_temperature;BME280_humidity;BME280_pressure;Samples;Min_cycle;Max_cycle;Signal;HPM_P1;HPM_P2
2022/10/09 00:01:16;;;;;;;14.85;10.90;;;;;;;9.31;81.91;100697.32;1715888;82;20973;-79
2022/10/09 00:03:46;;;;;;;13.47;11.10;;;;;;;9.26;82.16;100710.30;1714158;82;20993;-78
2022/10/09 00:06:17;;;;;;;17.97;11.53;;;;;;;9.19;82.35;100696.83;1717332;82;21039;-77
2022/10/09 00:08:43;;;;;;;16.77;11.90;;;;;;;9.13;82.53;100694.36;1714261;82;21071;-78
2022/10/09 00:11:15;;;;;;;14.57;11.20;;;;;;;9.09;82.72;100690.38;1733374;82;21022;-78
2022/10/09 00:13:43;;;;;;;13.43;11.10;;;;;;;9.04;82.84;100692.74;1730063;81;21617;-78
2022/10/09 00:16:13;;;;;;;16.47;12.03;;;;;;;9.01;83.12;100688.27;1718243;82;21004;-78
2022/10/09 00:18:40;;;;;;;20.37;11.77;;;;;;;8.98;83.20;100688.59;1732305;82;21020;-78
2022/10/09 00:21:26;;;;;;;15.97;12.17;;;;;;;8.93;83.47;100681.95;1710738;82;21060;-77
2022/10/09 00:23:55;;;;;;;14.70;11.77;;;;;;;8.91;83.75;100677.30;1689059;84;21032;-77
2022/10/09 00:26:22;;;;;;;13.77;12.30;;;;;;;8.89;83.95;100668.67;1718111;82;21020;-77
2022/10/09 00:28:48;;;;;;;15.00;11.15;;;;;;;8.85;84.03;100667.33;1713986;82;21098;-78
2022/10/09 00:31:15;;;;;;;14.70;12.30;;;;;;;8.83;84.11;100668.50;1722752;82;20949;-76
2022/10/09 00:33:42;;;;;;;16.70;11.07;;;;;;;8.83;84.30;100663.19;1721133;82;21076;-77
2022/10/09 00:36:13;;;;;;;17.37;11.70;;;;;;;8.80;84.38;100662.19;1719093;82;21087;-76
2022/10/09 00:38:40;;;;;;;19.20;13.03;;;;;;;8.79;84.53;100661.88;1711547;83;21489;-76
2022/10/09 00:41:09;;;;;;;19.07;12.63;;;;;;;8.77;84.51;100656.72;1708728;83;20973;-76
2022/10/09 00:43:49;;;;;;;19.87;12.20;;;;;;;8.73;84.50;100662.87;1678865;83;21061;-77
2022/10/09 00:46:45;;;;;;;14.60;12.00;;;;;;;8.71;84.58;100658.22;1684739;83;21103;-76
2022/10/09 00:49:31;;;;;;;16.07;11.80;;;;;;;8.68;84.79;100650.61;1727522;81;21017;-77
2022/10/09 00:52:02;;;;;;;17.77;12.23;;;;;;;8.66;84.93;100653.91;1709218;82;21544;-77
2022/10/09 00:54:33;;;;;;;13.77;11.87;;;;;;;8.65;84.92;100650.94;1708859;82;21107;-78
2022/10/09 00:56:59;;;;;;;16.93;11.97;;;;;;;8.63;84.98;100646.80;1704548;82;21044;-77
2022/10/09 00:59:26;;;;;;;18.07;12.68;;;;;;;8.61;84.93;100643.45;1723297;81;21496;-77
2022/10/09 01:01:53;;;;;;;14.40;12.40;;;;;;;8.56;84.95;100643.96;1706918;82;21580;-77
2022/10/09 01:04:20;;;;;;;17.17;12.20;;;;;;;8.50;85.04;100644.13;1716072;82;21024;-77
2022/10/09 01:07:07;;;;;;;19.12;11.97;;;;;;;8.41;85.24;100646.94;1705338;82;21005;-78
2022/10/09 01:10:15;;;;;;;20.67;12.77;;;;;;;8.32;85.43;100636.80;1694156;83;21048;-77
2022/10/09 01:12:51;;;;;;;14.87;12.40;;;;;;;8.23;85.79;100641.77;1715455;81;21033;-77
2022/10/09 01:15:41;;;;;;;19.83;13.53;;;;;;;8.10;86.16;100643.58;1731222;81;21086;-76
2022/10/09 01:18:18;;;;;;;16.00;12.67;;;;;;;8.01;86.48;100638.78;1694951;82;21472;-77
2022/10/09 01:21:05;;;;;;;16.63;13.13;;;;;;;7.97;86.82;100646.23;1703951;81;21537;-76
2022/10/09 01:24:13;;;;;;;16.32;11.65;;;;;;;7.57;87.02;100588.60;1702768;82;21087;-76
2022/10/09 01:27:11;;;;;;;23.73;14.53;;;;;;;7.86;87.41;100635.12;1703630;82;21005;-78
2022/10/09 01:29:44;;;;;;;;;;;;;;;7.81;87.79;100627.63;1709503;82;21040;-75
2022/10/09 01:32:16;;;;;;;18.03;12.93;;;;;;;7.76;87.88;100624.15;1724869;82;20210;-76
2022/10/09 01:34:45;;;;;;;24.47;12.97;;;;;;;7.67;87.99;100619.81;1718878;82;21668;-76
2022/10/09 01:37:13;;;;;;;17.67;13.57;;;;;;;7.66;88.09;100626.09;1708085;82;21032;-76
2022/10/09 01:39:43;;;;;;;16.30;13.57;;;;;;;7.65;88.11;100625.78;1695752;82;21043;-77
2022/10/09 01:42:12;;;;;;;18.57;13.07;;;;;;;7.64;88.10;100624.61;1713359;82;21017;-76
2022/10/09 01:44:38;;;;;;;18.90;14.13;;;;;;;7.60;88.13;100622.27;1703930;82;21005;-76
2022/10/09 01:47:05;;;;;;;26.82;14.10;;;;;;;7.59;88.19;100625.94;1734962;82;21148;-75
2022/10/09 01:49:53;;;;;;;21.87;13.70;;;;;;;7.60;88.21;100628.91;1713842;82;21315;-76
2022/10/09 01:52:33;;;;;;;21.00;13.13;;;;;;;7.60;88.31;100628.91;1728413;80;21546;-76
2022/10/09 01:55:24;;;;;;;19.10;13.67;;;;;;;7.61;88.30;100629.75;1754648;80;21670;-75
2022/10/09 01:58:18;;;;;;;18.10;14.13;;;;;;;7.62;88.18;100631.91;1753146;80;20960;-76
2022/10/09 02:01:12;;;;;;;19.53;13.00;;;;;;;7.58;88.14;100626.91;1759479;80;21013;-76
2022/10/09 02:03:44;;;;;;;22.07;12.87;;;;;;;7.56;88.28;100635.53;1760149;80;21531;-76
2022/10/09 02:06:13;;;;;;;18.60;14.07;;;;;;;7.52;88.30;100636.03;1722563;81;21039;-77
2022/10/09 02:08:45;;;;;;;21.07;13.43;;;;;;;7.49;88.32;100635.02;1726442;81;21588;-75
2022/10/09 02:11:14;;;;;;;21.07;13.37;;;;;;;7.47;88.47;100634.34;1723026;82;21533;-76
2022/10/09 02:13:43;;;;;;;21.00;13.73;;;;;;;7.45;88.58;100631.84;1731611;81;21047;-76
2022/10/09 02:16:41;;;;;;;16.30;13.97;;;;;;;7.45;88.74;100633.17;1731002;81;20971;-76
2022/10/09 02:19:26;;;;;;;19.50;14.43;;;;;;;7.43;88.48;100633.83;1708033;82;21543;-75
2022/10/09 02:22:15;;;;;;;18.37;13.73;;;;;;;7.39;88.59;100627.19;1730500;81;21532;-75
2022/10/09 02:24:43;;;;;;;18.10;13.27;;;;;;;7.38;88.77;100629.49;1718831;82;21045;-75
2022/10/09 02:27:11;;;;;;;20.87;13.27;;;;;;;7.36;88.79;100632.80;1713957;82;21090;-76
2022/10/09 02:29:41;;;;;;;17.40;13.20;;;;;;;7.34;88.58;100633.47;1710815;82;20953;-76
2022/10/09 02:32:09;;;;;;;17.93;12.97;;;;;;;7.32;88.54;100632.80;1711422;82;21050;-77
2022/10/09 02:34:36;;;;;;;18.73;14.00;;;;;;;7.26;88.54;100636.09;1714334;82;21031;-76
2022/10/09 02:37:03;;;;;;;19.00;13.23;;;;;;;7.21;88.59;100634.75;1712628;82;20997;-77
2022/10/09 02:39:29;;;;;;;16.23;12.97;;;;;;;7.19;88.73;100642.01;1714006;82;20996;-75
2022/10/09 02:41:55;;;;;;;24.55;13.93;;;;;;;7.16;88.78;100640.20;1711769;82;21097;-75
2022/10/09 02:44:22;;;;;;;18.07;13.83;;;;;;;7.13;88.86;100635.20;1705039;82;21171;-76
2022/10/09 02:46:48;;;;;;;17.48;13.43;;;;;;;7.11;89.01;100630.05;1696345;83;20993;-77
2022/10/09 02:49:14;;;;;;;15.15;13.18;;;;;;;7.10;89.01;100627.08;1716974;82;21007;-77
2022/10/09 02:51:40;;;;;;;19.40;14.03;;;;;;;7.10;88.98;100630.20;1710149;82;21548;-78
2022/10/09 02:54:06;;;;;;;15.28;13.15;;;;;;;;;;1709130;82;21009;-76
2022/10/09 02:56:32;;;;;;;20.72;14.07;;;;;;;7.08;89.16;100625.56;1701031;83;21020;-76
2022/10/09 02:59:00;;;;;;;16.37;13.27;;;;;;;7.07;89.22;100615.45;1705556;83;21006;-76
2022/10/09 03:01:26;;;;;;;19.73;13.22;;;;;;;7.05;89.09;100623.24;1697366;81;20979;-77
2022/10/09 03:03:52;;;;;;;23.95;13.93;;;;;;;7.02;89.07;100621.72;1701948;83;20982;-75
2022/10/09 03:06:24;;;;;;;15.87;12.70;;;;;;;6.97;89.09;100617.41;1715468;81;21476;-78
2022/10/09 03:08:53;;;;;;;15.30;12.40;;;;;;;6.95;89.10;100610.09;1681601;83;21055;-76
2022/10/09 03:11:21;;;;;;;16.40;12.70;;;;;;;6.90;89.20;100606.59;1708108;82;21046;-76
2022/10/09 03:13:48;;;;;;;22.67;13.27;;;;;;;6.89;89.34;100609.40;1731494;81;21497;-76
2022/10/09 03:16:20;;;;;;;16.17;12.40;;;;;;;6.89;89.93;100609.40;1733178;81;21028;-76
2022/10/09 03:18:49;;;;;;;22.97;15.10;;;;;;;6.90;90.26;100600.47;1730595;81;20937;-76
2022/10/09 03:21:23;;;;;;;19.07;13.13;;;;;;;6.91;90.47;100604.77;1731347;81;21083;-76
2022/10/09 03:23:50;;;;;;;18.37;13.13;;;;;;;6.92;90.69;100604.62;1717083;81;20992;-76
2022/10/09 03:26:21;;;;;;;18.57;12.70;;;;;;;6.94;90.77;100601.31;1744354;81;20973;-77
2022/10/09 03:28:51;;;;;;;17.50;13.07;;;;;;;6.93;90.69;100599.67;1722240;81;21040;-76
2022/10/09 03:31:21;;;;;;;17.27;12.97;;;;;;;6.93;90.69;100600.14;1731059;81;21514;-75
2022/10/09 03:33:47;;;;;;;16.27;12.13;;;;;;;6.92;90.65;100601.14;1731527;81;20953;-77
2022/10/09 03:36:13;;;;;;;18.40;12.23;;;;;;;6.93;90.75;100604.11;1700578;83;21033;-76
2022/10/09 03:38:39;;;;;;;;;;;;;;;6.93;90.75;100600.14;1755382;80;21572;-75
2022/10/09 03:41:06;;;;;;;14.87;12.47;;;;;;;6.91;90.62;100600.32;1752595;80;20447;-77
2022/10/09 03:43:34;;;;;;;18.47;12.00;;;;;;;6.84;90.86;100597.96;1752505;80;21032;-76
2022/10/09 03:46:08;;;;;;;15.88;12.13;;;;;;;6.85;90.80;100596.13;1747625;80;21559;-77
2022/10/09 03:48:35;;;;;;;14.03;11.37;;;;;;;6.83;90.89;100594.45;1732764;78;21036;-77
2022/10/09 03:51:02;;;;;;;15.93;12.13;;;;;;;6.82;91.00;100594.14;1761085;80;21041;-76
2022/10/09 03:53:28;;;;;;;15.77;12.03;;;;;;;6.79;90.89;100593.12;1741131;80;21592;-76
2022/10/09 03:55:54;;;;;;;13.40;11.35;;;;;;;6.75;91.00;100590.45;1751117;80;21037;-76
2022/10/09 03:58:20;;;;;;;17.25;11.73;;;;;;;6.73;91.23;100588.45;1744874;80;21012;-75
2022/10/09 04:00:50;;;;;;;14.00;11.87;;;;;;;6.73;91.35;100582.33;1773281;80;21485;-79
2022/10/09 04:03:17;;;;;;;15.87;12.47;;;;;;;6.72;91.76;100582.80;1753757;80;21032;-77
2022/10/09 04:05:43;;;;;;;;;;;;;;;6.75;91.87;100589.63;1756463;80;21000;-77
2022/10/09 04:08:12;;;;;;;12.53;10.97;;;;;;;6.74;91.84;100596.75;1749823;80;20145;-76
2022/10/09 04:10:38;;;;;;;18.53;11.80;;;;;;;6.68;92.06;100593.38;1750800;80;21551;-77
2022/10/09 04:13:05;;;;;;;17.45;12.30;;;;;;;6.69;92.16;100595.06;1751388;80;20972;-77
2022/10/09 04:15:34;;;;;;;14.33;10.83;;;;;;;6.69;92.16;100589.77;1751434;80;21504;-77
2022/10/09 04:18:00;;;;;;;14.07;11.30;;;;;;;6.71;92.26;100591.76;1750228;79;21031;-78
2022/10/09 04:20:26;;;;;;;13.62;11.48;;;;;;;6.71;92.06;100593.58;1746592;77;21477;-76
2022/10/09 04:22:53;;;;;;;15.95;11.95;;;;;;;6.70;92.20;100593.23;1732112;81;21048;-76
2022/10/09 04:25:19;;;;;;;17.77;13.40;;;;;;;6.70;92.91;100590.58;1752609;80;21063;-76
2022/10/09 04:27:46;;;;;;;16.87;12.88;;;;;;;6.71;94.58;100589.61;1731557;81;21360;-76
2022/10/09 04:30:12;;;;;;;18.57;12.58;;;;;;;6.83;96.37;100587.83;1752323;78;20968;-76
2022/10/09 04:32:40;;;;;;;15.67;11.60;;;;;;;7.12;97.94;100585.34;1743878;82;21480;-76
2022/10/09 04:35:07;;;;;;;16.65;13.38;;;;;;;7.47;97.36;100586.09;1748395;80;21037;-76
2022/10/09 04:37:35;;;;;;;19.80;15.83;;;;;;;7.80;96.16;100584.84;1751384;79;20989;-75
2022/10/09 04:40:02;;;;;;;25.87;17.73;;;;;;;8.21;95.65;100584.84;1736916;80;21165;-77
2022/10/09 04:42:29;;;;;;;22.23;18.03;;;;;;;8.71;93.56;100584.32;1753536;80;21057;-77
2022/10/09 04:44:55;;;;;;;19.00;17.00;;;;;;;9.21;91.12;100577.83;1751683;80;21099;-78
2022/10/09 04:47:21;;;;;;;;;;;;;;;9.73;89.97;100575.03;1759535;80;22177;-78
2022/10/09 04:49:48;;;;;;;25.77;17.17;;;;;;;10.36;87.25;100581.54;1752563;80;20098;-79
2022/10/09 04:52:14;;;;;;;19.33;16.73;;;;;;;11.02;84.40;100588.34;1749709;80;21479;-79
2022/10/09 04:54:42;;;;;;;22.37;16.80;;;;;;;11.61;80.89;100582.08;1744990;80;21548;-78
2022/10/09 04:57:08;;;;;;;26.35;14.87;;;;;;;12.03;77.01;100587.14;1748575;78;21546;-79
2022/10/09 04:59:34;;;;;;;15.93;12.65;;;;;;;12.26;74.28;100592.27;1753518;80;21144;-78
2022/10/09 05:02:00;;;;;;;16.50;13.88;;;;;;;12.46;72.45;100585.74;1763053;80;20977;-79
2022/10/09 05:04:26;;;;;;;17.12;12.45;;;;;;;12.73;73.16;100588.08;1750472;80;21009;-78
2022/10/09 05:06:52;;;;;;;;;;;;;;;13.14;70.87;100587.27;1745293;80;21039;-79
2022/10/09 05:09:22;;;;;;;17.73;12.23;;;;;;;13.61;69.05;100588.81;1748623;80;20098;-79
2022/10/09 05:11:48;;;;;;;15.60;12.20;;;;;;;14.03;67.17;100581.45;1742412;80;20993;-79
2022/10/09 05:14:17;;;;;;;14.78;12.10;;;;;;;14.55;65.60;100584.34;1748531;78;21590;-86
2022/10/09 05:16:44;;;;;;;13.75;11.80;;;;;;;14.84;63.58;100576.35;1750795;80;21497;-73
2022/10/09 05:19:11;;;;;;;11.43;10.08;;;;;;;14.83;62.14;100578.75;1747304;80;21068;-72
2022/10/09 05:21:37;;;;;;;13.20;11.85;;;;;;;14.65;62.45;100582.59;1754319;80;21049;-73
2022/10/09 05:24:04;;;;;;;12.70;11.43;;;;;;;14.53;62.92;100583.73;1750517;80;21054;-75
2022/10/09 05:26:30;;;;;;;;;;;;;;;14.46;63.33;100585.06;1754644;80;21085;-74
2022/10/09 05:28:56;;;;;;;13.05;11.18;;;;;;;14.68;62.47;100588.90;1752212;80;20486;-73
2022/10/09 05:31:29;;;;;;;10.48;9.55;;;;;;;14.94;62.04;100580.78;1754543;80;20969;-74
2022/10/09 05:33:59;;;;;;;13.88;9.78;;;;;;;15.16;60.37;100583.17;1751329;80;21012;-73
2022/10/09 05:36:25;;;;;;;10.68;9.45;;;;;;;15.29;60.24;100583.64;1741091;80;21573;-72
2022/10/09 05:38:52;;;;;;;10.55;9.50;;;;;;;15.08;59.56;100584.23;1750230;80;21032;-76
2022/10/09 05:41:19;;;;;;;10.25;8.33;;;;;;;14.96;60.44;100589.44;1764536;78;21040;-72
2022/10/09 05:43:48;;;;;;;9.28;8.28;;;;;;;15.03;61.03;100594.80;1753060;80;21068;-73
2022/10/09 05:46:22;;;;;;;9.23;8.33;;;;;;;15.25;60.13;100593.17;1754281;80;21560;-72
2022/10/09 05:48:53;;;;;;;11.17;7.97;;;;;;;15.53;59.71;100599.02;1753432;78;21028;-85
2022/10/09 05:51:24;;;;;;;10.13;9.10;;;;;;;15.82;57.96;100591.96;1733050;80;21000;-73
2022/10/09 05:53:50;;;;;;;14.28;8.85;;;;;;;16.15;57.62;100591.73;1748156;80;21036;-80
2022/10/09 05:56:22;;;;;;;11.53;8.00;;;;;;;16.37;55.99;100594.03;1751391;80;21481;-81
2022/10/09 05:58:55;;;;;;;10.28;8.03;;;;;;;16.44;55.13;100590.23;1754406;80;21043;-83
2022/10/09 06:01:25;;;;;;;11.18;8.15;;;;;;;16.58;55.01;100586.92;1756190;80;21449;-85
2022/10/09 06:03:54;;;;;;;11.12;8.63;;;;;;;16.91;53.95;100589.30;1752179;80;21052;-82
2022/10/09 06:06:25;;;;;;;10.68;8.48;;;;;;;17.22;53.43;100583.98;1739439;80;20999;-82
2022/10/09 06:08:53;;;;;;;11.25;9.65;;;;;;;16.84;52.35;100593.94;1722932;80;21033;-81
2022/10/09 06:11:23;;;;;;;9.60;7.65;;;;;;;16.84;52.35;100593.94;1719899;80;21512;-82
2022/10/09 06:13:51;;;;;;;13.95;9.40;;;;;;;16.31;54.39;100596.58;1740635;80;21055;-80
2022/10/09 06:16:19;;;;;;;10.25;9.25;;;;;;;15.35;56.83;100596.20;1747438;79;20973;-82
2022/10/09 06:18:47;;;;;;;10.25;8.98;;;;;;;15.35;56.83;100596.20;1750452;80;20980;-84
2022/10/09 06:21:14;;;;;;;12.70;9.38;;;;;;;14.88;59.07;100596.39;1746040;80;21505;-81
2022/10/09 06:23:42;;;;;;;12.40;10.00;;;;;;;14.49;60.30;100594.05;1750685;80;21024;-81
2022/10/09 06:26:12;;;;;;;12.13;10.72;;;;;;;14.16;62.08;100591.36;1745477;80;20949;-82
2022/10/09 06:28:39;;;;;;;13.85;10.40;;;;;;;13.92;62.97;100598.98;1753591;80;20984;-80
2022/10/09 06:31:12;;;;;;;11.78;8.83;;;;;;;13.70;64.14;100602.86;1753027;80;20973;-81
2022/10/09 06:33:41;;;;;;;11.88;9.30;;;;;;;13.48;65.11;100604.32;1751739;80;20968;-81
2022/10/09 06:36:13;;;;;;;13.58;9.50;;;;;;;13.28;65.95;100602.05;1747936;80;21029;-83
2022/10/09 06:38:40;;;;;;;12.23;10.78;;;;;;;13.12;66.79;100600.03;1753630;80;21036;-79
2022/10/09 06:41:16;;;;;;;13.30;11.18;;;;;;;13.03;67.64;100599.87;1748876;80;21049;-84
2022/10/09 06:43:52;;;;;;;12.18;10.28;;;;;;;13.03;68.25;100607.91;1696806;83;21718;-82
2022/10/09 06:46:19;;;;;;;14.33;10.78;;;;;;;13.07;68.46;100605.66;1685420;80;21094;-81
2022/10/09 06:48:46;;;;;;;13.20;10.35;;;;;;;13.13;68.50;100604.86;1712727;82;21075;-82
2022/10/09 06:51:16;;;;;;;13.70;10.15;;;;;;;13.19;68.44;100613.45;1713356;82;21070;-81
2022/10/09 06:53:46;;;;;;;11.73;10.25;;;;;;;13.24;68.73;100614.52;1709675;80;22138;-81
2022/10/09 06:56:14;;;;;;;13.05;9.90;;;;;;;13.31;68.26;100615.89;1726183;81;20984;-83
2022/10/09 07:00:21;;;;;;;13.30;10.80;;;;;;;13.43;67.97;100608.14;1786802;79;22752;-82
2022/10/09 07:02:48;;;;;;;12.78;9.53;;;;;;;13.43;67.63;100614.83;1766110;80;22393;-82
2022/10/09 07:05:15;;;;;;;11.57;9.88;;;;;;;13.47;67.67;100611.21;1771022;80;21049;-81
2022/10/09 07:07:41;;;;;;;17.95;10.50;;;;;;;13.53;67.99;100603.73;1754522;80;21120;-84
2022/10/09 07:10:09;;;;;;;12.93;9.75;;;;;;;13.62;67.42;100603.87;1754818;80;20954;-82
2022/10/09 07:12:36;;;;;;;12.78;11.28;;;;;;;13.70;67.12;100608.22;1744706;80;20979;-82
2022/10/09 07:15:10;;;;;;;16.82;10.13;;;;;;;13.72;66.67;100601.61;1708361;81;21160;-80
2022/10/09 07:17:36;;;;;;;10.00;8.97;;;;;;;13.73;66.59;100607.30;1734176;80;21079;-83
2022/10/09 07:20:03;;;;;;;13.90;10.48;;;;;;;13.74;66.48;100603.58;1734390;81;21010;-83
2022/10/09 07:22:31;;;;;;;12.00;9.60;;;;;;;13.81;66.33;100600.92;1726800;81;21006;-84
2022/10/09 07:24:57;;;;;;;14.25;11.28;;;;;;;13.89;66.21;100598.05;1668252;83;20983;-85
2022/10/09 07:27:23;;;;;;;12.78;10.08;;;;;;;13.96;66.04;100594.05;1721173;82;21049;-83
2022/10/09 07:29:50;;;;;;;;;;;;;;;13.97;65.89;100584.96;1689366;82;20998;-81
2022/10/09 07:32:17;;;;;;;16.27;10.85;;;;;;;13.96;65.77;100581.47;1690621;83;20119;-85
2022/10/09 07:34:43;;;;;;;;;;;;;;;13.32;65.75;100501.11;1721418;82;21040;-84
2022/10/09 07:37:09;;;;;;;14.50;9.68;;;;;;;13.77;66.25;100586.29;1707440;82;20150;-83
2022/10/09 07:39:35;;;;;;;;;;;;;;;13.74;67.23;100586.16;1697365;83;21010;-81
2022/10/09 07:42:04;;;;;;;10.45;9.10;;;;;;;13.84;67.41;100580.41;1714111;82;20165;-84
2022/10/09 07:44:31;;;;;;;13.38;10.88;;;;;;;13.88;66.58;100579.48;1715328;81;21000;-82
2022/10/09 07:46:57;;;;;;;14.47;11.08;;;;;;;13.94;66.66;100577.34;1720412;82;21095;-83
2022/10/09 07:49:23;;;;;;;11.70;10.50;;;;;;;13.99;66.71;100577.54;1703203;83;21072;-81
2022/10/09 07:51:49;;;;;;;;;;;;;;;14.06;66.58;100577.03;1721401;82;21071;-81
2022/10/09 07:54:16;;;;;;;14.30;10.95;;;;;;;14.14;66.71;100578.69;1703393;83;20153;-81
2022/10/09 07:56:43;;;;;;;16.45;11.85;;;;;;;14.19;67.28;100581.06;1685420;83;21096;-81
2022/10/09 07:59:14;;;;;;;15.20;11.50;;;;;;;14.32;67.47;100574.05;1688226;83;21046;-81
2022/10/09 08:01:41;;;;;;;13.22;11.22;;;;;;;14.46;66.52;100578.36;1671496;84;21099;-82
2022/10/09 08:04:12;;;;;;;16.37;12.78;;;;;;;14.62;66.65;100580.33;1663824;85;21156;-82
2022/10/09 08:06:42;;;;;;;12.23;10.48;;;;;;;14.75;65.09;100577.64;1685806;83;21539;-82
2022/10/09 08:09:08;;;;;;;17.87;12.55;;;;;;;14.79;64.48;100578.87;1663223;84;21021;-82
2022/10/09 08:11:39;;;;;;;13.50;10.82;;;;;;;14.76;64.66;100572.56;1651788;85;21015;-81
2022/10/09 08:14:04;;;;;;;17.15;12.13;;;;;;;14.69;65.03;100573.94;1568945;90;21069;-82
2022/10/09 08:16:31;;;;;;;17.92;12.68;;;;;;;14.68;65.33;100578.17;1647971;85;21038;-84
2022/10/09 08:19:01;;;;;;;14.73;12.28;;;;;;;14.69;65.50;100573.94;1597837;88;21598;-82
2022/10/09 08:21:32;;;;;;;31.02;13.78;;;;;;;14.73;65.30;100567.61;1659975;85;21049;-83
2022/10/09 08:23:59;;;;;;;15.88;12.20;;;;;;;14.77;64.97;100566.18;1639964;85;21146;-86
2022/10/09 08:26:28;;;;;;;17.77;13.60;;;;;;;14.81;64.85;100569.27;1653331;85;21070;-84
2022/10/09 08:28:59;;;;;;;19.23;13.18;;;;;;;14.82;64.99;100567.69;1605053;86;21100;-83
2022/10/09 08:31:26;;;;;;;19.40;12.40;;;;;;;14.84;65.33;100565.63;1588966;89;21374;-83
2022/10/09 08:33:56;;;;;;;14.03;12.28;;;;;;;14.94;65.16;100574.59;1580896;89;21078;-83
2022/10/09 08:36:24;;;;;;;19.62;12.95;;;;;;;15.06;64.90;100566.70;1600468;88;21115;-80
2022/10/09 08:38:52;;;;;;;16.48;12.75;;;;;;;15.22;65.11;100562.20;1589731;88;21043;-82
2022/10/09 08:41:42;;;;;;;24.65;13.62;;;;;;;15.37;65.03;100558.72;1598446;88;21002;-83
2022/10/09 08:44:34;;;;;;;14.05;12.33;;;;;;;15.50;64.69;100556.98;1569568;88;21023;-78
2022/10/09 08:47:17;;;;;;;14.90;12.33;;;;;;;15.60;63.84;100555.20;1643665;85;21040;-79
2022/10/09 08:49:57;;;;;;;23.38;12.05;;;;;;;15.67;63.80;100547.39;1642854;85;21056;-79
2022/10/09 08:52:54;;;;;;;18.45;12.93;;;;;;;15.76;63.44;100550.16;1642469;85;21170;-76
2022/10/09 08:55:41;;;;;;;17.07;11.80;;;;;;;15.81;62.84;100543.30;1649502;85;21075;-77
2022/10/09 08:58:13;;;;;;;23.42;11.30;;;;;;;15.88;62.15;100535.48;1643905;85;21058;-77
2022/10/09 09:00:54;;;;;;;16.73;11.28;;;;;;;15.92;61.67;100530.50;1601050;87;21068;-77
2022/10/09 09:03:50;;;;;;;12.43;10.40;;;;;;;15.93;61.84;100518.16;1603844;87;21656;-77
2022/10/09 09:06:50;;;;;;;15.15;10.10;;;;;;;16.00;61.94;100518.12;1609479;87;21054;-75
2022/10/09 09:09:26;;;;;;;16.37;10.40;;;;;;;16.13;62.43;100516.66;1668406;83;21052;-77
2022/10/09 09:12:04;;;;;;;15.55;10.93;;;;;;;16.33;61.58;100531.28;1679120;83;21061;-76
2022/10/09 09:14:56;;;;;;;16.52;10.25;;;;;;;16.51;61.59;100523.73;1675538;84;21078;-77
2022/10/09 09:17:49;;;;;;;13.75;8.85;;;;;;;16.70;61.02;100520.53;1650622;84;21407;-81
2022/10/09 09:20:52;;;;;;;11.97;8.63;;;;;;;16.88;60.58;100521.63;1629441;85;21025;-75
2022/10/09 09:23:27;;;;;;;13.48;7.22;;;;;;;17.01;60.45;100519.27;1663968;83;21030;-82
2022/10/09 09:25:58;;;;;;;10.55;7.10;;;;;;;17.11;57.61;100513.65;1687484;82;20973;-81
2022/10/09 09:28:33;;;;;;;14.53;7.10;;;;;;;17.11;57.61;100513.65;1695334;79;21137;-81
2022/10/09 09:31:17;;;;;;;13.68;6.95;;;;;;;17.13;57.72;100519.63;1686462;82;21021;-78
2022/10/09 09:33:55;;;;;;;12.45;8.13;;;;;;;17.16;57.82;100526.45;1691040;82;21355;-80
2022/10/09 09:36:37;;;;;;;13.55;8.45;;;;;;;17.19;57.24;100518.43;1686919;82;20961;-79
2022/10/09 09:39:03;;;;;;;12.25;7.92;;;;;;;17.22;57.78;100517.45;1689091;82;21642;-80
2022/10/09 09:41:29;;;;;;;;;;;;;;;17.24;56.86;100516.70;1676377;84;20965;-80
2022/10/09 09:43:55;;;;;;;13.20;7.20;;;;;;;17.24;56.54;100515.35;1701552;82;20114;-78
2022/10/09 09:46:26;;;;;;;9.80;6.50;;;;;;;17.23;57.28;100520.96;1694148;82;21009;-78
2022/10/09 09:48:52;;;;;;;9.93;6.03;;;;;;;17.32;57.20;100511.52;1695779;82;21680;-79
2022/10/09 09:51:30;;;;;;;11.90;6.20;;;;;;;17.45;56.74;100516.71;1682696;82;20965;-79
2022/10/09 09:54:06;;;;;;;7.83;5.22;;;;;;;17.65;55.24;100515.08;1699702;81;21039;-80
2022/10/09 09:56:37;;;;;;;8.05;6.20;;;;;;;17.65;55.24;100515.08;1689877;82;21056;-81
2022/10/09 09:59:03;;;;;;;6.20;4.53;;;;;;;17.71;54.34;100506.06;1719497;82;21617;-81
2022/10/09 10:01:31;;;;;;;5.58;4.50;;;;;;;17.81;52.96;100509.53;1691635;82;21018;-79
2022/10/09 10:04:03;;;;;;;7.83;4.30;;;;;;;17.90;52.91;100506.02;1714292;82;21049;-75
2022/10/09 10:06:35;;;;;;;5.78;3.58;;;;;;;17.99;52.82;100504.62;1695102;84;21128;-77
2022/10/09 10:09:14;;;;;;;5.20;4.03;;;;;;;18.12;52.66;100509.47;1716145;82;21061;-77
2022/10/09 10:11:47;;;;;;;6.65;3.75;;;;;;;18.24;51.21;100502.22;1714825;83;21105;-76
2022/10/09 10:14:16;;;;;;;6.28;3.20;;;;;;;18.28;50.75;100503.38;1696264;82;21016;-84
2022/10/09 10:16:47;;;;;;;7.25;3.98;;;;;;;18.25;49.81;100501.14;1714117;82;21565;-80
2022/10/09 10:19:34;;;;;;;4.62;3.85;;;;;;;18.22;50.70;100501.63;1731122;81;21930;-78
2022/10/09 10:22:08;;;;;;;7.90;3.60;;;;;;;18.23;50.54;100500.56;1717413;81;20966;-79
2022/10/09 10:24:43;;;;;;;3.90;2.87;;;;;;;18.27;49.69;100501.73;1732028;81;21121;-77
2022/10/09 10:27:38;;;;;;;6.72;2.85;;;;;;;18.33;49.39;100496.77;1747705;81;21637;-79
2022/10/09 10:30:12;;;;;;;10.85;3.37;;;;;;;18.37;49.20;100487.67;1709858;82;20955;-77
2022/10/09 10:33:00;;;;;;;5.15;3.15;;;;;;;18.44;49.05;100497.78;1721447;82;21029;-78
2022/10/09 10:35:31;;;;;;;2.75;2.40;;;;;;;18.54;49.24;100491.81;1713175;82;21137;-82
2022/10/09 10:38:21;;;;;;;4.42;2.65;;;;;;;18.62;48.99;100484.69;1707779;82;21521;-78
2022/10/09 10:40:57;;;;;;;4.33;2.20;;;;;;;18.67;48.55;100481.56;1727790;82;21015;-77
2022/10/09 10:43:32;;;;;;;2.47;2.27;;;;;;;18.68;48.39;100483.22;1719187;82;21310;-78
2022/10/09 10:46:19;;;;;;;5.17;2.58;;;;;;;18.68;48.35;100485.08;1699755;82;21029;-78
2022/10/09 10:48:46;;;;;;;;;;;;;;;18.68;48.43;100480.52;1712031;82;21001;-77
2022/10/09 10:51:39;;;;;;;6.85;2.37;;;;;;;18.69;48.76;100473.23;1710969;82;20183;-78
2022/10/09 10:54:40;;;;;;;8.23;3.35;;;;;;;18.66;48.74;100471.81;1691661;82;21063;-77
2022/10/09 10:57:22;;;;;;;4.70;2.30;;;;;;;18.70;48.55;100469.45;1706265;83;21106;-78
2022/10/09 11:00:05;;;;;;;2.65;1.95;;;;;;;18.72;48.87;100472.73;1695702;82;21062;-78
2022/10/09 11:02:55;;;;;;;6.05;2.30;;;;;;;18.70;49.29;100466.75;1686621;82;21100;-79
2022/10/09 11:05:56;;;;;;;4.47;3.08;;;;;;;18.69;49.17;100465.13;1678163;82;21176;-78
2022/10/09 11:08:56;;;;;;;3.92;2.17;;;;;;;18.68;49.56;100464.83;1671241;84;21066;-80
2022/10/09 11:11:51;;;;;;;4.47;1.90;;;;;;;18.64;50.13;100459.62;1683295;83;21071;-78
2022/10/09 11:14:46;;;;;;;4.65;2.12;;;;;;;18.56;48.41;100456.77;1673608;83;21039;-78
2022/10/09 11:17:40;;;;;;;4.17;2.67;;;;;;;18.45;48.84;100461.66;1669080;83;21118;-79
2022/10/09 11:20:16;;;;;;;2.90;2.12;;;;;;;18.38;49.20;100459.07;1619481;83;21676;-80
2022/10/09 11:23:19;;;;;;;;;;;;;;;18.38;48.99;100460.95;1661540;85;21058;-77
2022/10/09 11:26:19;;;;;;;5.22;2.47;;;;;;;18.33;48.95;100449.54;1677141;83;20133;-80
2022/10/09 11:29:03;;;;;;;8.23;3.12;;;;;;;18.28;49.26;100455.62;1685292;82;21073;-77
2022/10/09 11:31:44;;;;;;;3.00;2.80;;;;;;;18.31;49.11;100458.41;1722066;81;21809;-78
2022/10/09 11:34:21;;;;;;;4.95;2.60;;;;;;;18.31;48.94;100457.05;1704386;82;21042;-79
2022/10/09 11:36:47;;;;;;;2.77;2.20;;;;;;;18.31;49.27;100457.05;1705551;83;21045;-79
2022/10/09 11:39:22;;;;;;;6.75;3.92;;;;;;;18.33;49.35;100458.14;1720732;81;21037;-78
2022/10/09 11:41:52;;;;;;;4.72;2.42;;;;;;;18.37;49.43;100463.38;1710655;81;21044;-80
2022/10/09 11:44:43;;;;;;;4.55;3.20;;;;;;;18.38;49.69;100465.81;1690023;82;21022;-78
2022/10/09 11:47:24;;;;;;;4.62;2.90;;;;;;;18.34;50.09;100460.61;1698397;82;21555;-78